sensor_id;sensor_type;location;lat;lon;timestamp;temperature;humidity
10812;DHT22;5458;51.496;7.334;2022-10-18T00:02:14;17.30;99.90
10812;DHT22;5458;51.496;7.334;2022-10-18T00:04:40;17.30;99.90
10812;DHT22;5458;51.496;7.334;2022-10-18T00:07:06;17.30;99.90
10812;DHT22;5458;51.496;7.334;2022-10-18T00:09:32;17.30;99.90
10812;DHT22;5458;51.496;7.334;2022-10-18T00:11:57;17.30;99.90
10812;DHT22;5458;51.496;7.334;2022-10-18T00:14:23;17.30;99.90
10812;DHT22;5458;51.496;7.334;2022-10-18T00:16:49;17.30;99.90
10812;DHT22;5458;51.496;7.334;2022-10-18T00:19:14;17.30;99.90
10812;DHT22;5458;51.496;7.334;2022-10-18T00:21:40;17.30;99.90
10812;DHT22;5458;51.496;7.334;2022-10-18T00:24:05;17.30;99.90
10812;DHT22;5458;51.496;7.334;2022-10-18T00:26:31;17.30;99.90
10812;DHT22;5458;51.496;7.334;2022-10-18T00:29:02;17.30;99.90
10812;DHT22;5458;51.496;7.334;2022-10-18T00:31:30;17.30;99.90
10812;DHT22;5458;51.496;7.334;2022-10-18T00:33:59;17.30;99.90
10812;DHT22;5458;51.496;7.334;2022-10-18T00:36:27;17.30;99.90
10812;DHT22;5458;51.496;7.334;2022-10-18T00:38:53;17.30;99.90
10812;DHT22;5458;51.496;7.334;2022-10-18T00:41:22;17.30;99.90
10812;DHT22;5458;51.496;7.334;2022-10-18T00:44:02;17.30;99.90
10812;DHT22;5458;51.496;7.334;2022-10-18T00:46:30;17.30;99.90
10812;DHT22;5458;51.496;7.334;2022-10-18T00:48:58;17.30;99.90
10812;DHT22;5458;51.496;7.334;2022-10-18T00:51:27;17.30;99.90
10812;DHT22;5458;51.496;7.334;2022-10-18T00:53:54;17.20;99.90
10812;DHT22;5458;51.496;7.334;2022-10-18T00:56:20;17.20;99.90
10812;DHT22;5458;51.496;7.334;2022-10-18T00:58:47;17.20;99.90
10812;DHT22;5458;51.496;7.334;2022-10-18T01:01:13;17.20;99.90
10812;DHT22;5458;51.496;7.334;2022-10-18T01:03:40;17.20;99.90
10812;DHT22;5458;51.496;7.334;2022-10-18T01:06:07;17.20;99.90
10812;DHT22;5458;51.496;7.334;2022-10-18T01:08:55;17.20;99.90
10812;DHT22;5458;51.496;7.334;2022-10-18T01:11:28;17.20;99.90
10812;DHT22;5458;51.496;7.334;2022-10-18T01:23:06;17.10;99.90
10812;DHT22;5458;51.496;7.334;2022-10-18T01:28:29;17.20;99.90
10812;DHT22;5458;51.496;7.334;2022-10-18T01:31:00;17.10;99.90
10812;DHT22;5458;51.496;7.334;2022-10-18T01:33:38;17.10;99.90
10812;DHT22;5458;51.496;7.334;2022-10-18T01:36:19;17.20;99.90
10812;DHT22;5458;51.496;7.334;2022-10-18T01:38:48;17.10;99.90
10812;DHT22;5458;51.496;7.334;2022-10-18T01:41:18;17.10;99.90
10812;DHT22;5458;51.496;7.334;2022-10-18T01:43:45;17.10;99.90
10812;DHT22;5458;51.496;7.334;2022-10-18T01:46:14;17.10;99.90
10812;DHT22;5458;51.496;7.334;2022-10-18T01:48:42;17.10;99.90
10812;DHT22;5458;51.496;7.334;2022-10-18T01:51:08;17.10;99.90
10812;DHT22;5458;51.496;7.334;2022-10-18T01:53:34;17.00;99.90
10812;DHT22;5458;51.496;7.334;2022-10-18T02:07:26;17.00;99.90
10812;DHT22;5458;51.496;7.334;2022-10-18T02:12:28;17.00;99.90
10812;DHT22;5458;51.496;7.334;2022-10-18T02:14:56;17.00;99.90
10812;DHT22;5458;51.496;7.334;2022-10-18T02:17:25;16.90;99.90
10812;DHT22;5458;51.496;7.334;2022-10-18T02:19:54;16.90;99.90
10812;DHT22;5458;51.496;7.334;2022-10-18T02:22:22;16.90;99.90
10812;DHT22;5458;51.496;7.334;2022-10-18T02:24:52;16.90;99.90
10812;DHT22;5458;51.496;7.334;2022-10-18T02:27:19;17.00;99.90
10812;DHT22;5458;51.496;7.334;2022-10-18T02:29:45;16.90;99.90
10812;DHT22;5458;51.496;7.334;2022-10-18T02:32:24;16.90;99.90
10812;DHT22;5458;51.496;7.334;2022-10-18T02:35:05;16.90;99.90
10812;DHT22;5458;51.496;7.334;2022-10-18T02:37:36;16.90;99.90
10812;DHT22;5458;51.496;7.334;2022-10-18T02:40:05;16.90;99.90
10812;DHT22;5458;51.496;7.334;2022-10-18T02:42:41;16.90;99.90
10812;DHT22;5458;51.496;7.334;2022-10-18T02:45:08;16.90;99.90
10812;DHT22;5458;51.496;7.334;2022-10-18T02:47:35;16.90;99.90
10812;DHT22;5458;51.496;7.334;2022-10-18T02:50:01;16.90;99.90
10812;DHT22;5458;51.496;7.334;2022-10-18T02:52:26;16.90;99.90
10812;DHT22;5458;51.496;7.334;2022-10-18T02:54:52;16.90;99.90
10812;DHT22;5458;51.496;7.334;2022-10-18T02:57:18;16.90;99.90
10812;DHT22;5458;51.496;7.334;2022-10-18T02:59:43;16.90;99.90
10812;DHT22;5458;51.496;7.334;2022-10-18T03:02:09;16.90;99.90
10812;DHT22;5458;51.496;7.334;2022-10-18T03:04:34;17.00;99.90
10812;DHT22;5458;51.496;7.334;2022-10-18T03:07:00;16.90;99.90
10812;DHT22;5458;51.496;7.334;2022-10-18T03:09:25;16.90;99.90
10812;DHT22;5458;51.496;7.334;2022-10-18T03:11:51;16.90;99.90
10812;DHT22;5458;51.496;7.334;2022-10-18T03:14:17;16.90;99.90
10812;DHT22;5458;51.496;7.334;2022-10-18T03:16:42;16.90;99.90
10812;DHT22;5458;51.496;7.334;2022-10-18T03:19:08;16.90;99.90
10812;DHT22;5458;51.496;7.334;2022-10-18T03:21:33;16.90;99.90
10812;DHT22;5458;51.496;7.334;2022-10-18T03:23:59;16.90;99.90
10812;DHT22;5458;51.496;7.334;2022-10-18T03:26:26;16.90;99.90
10812;DHT22;5458;51.496;7.334;2022-10-18T03:28:51;16.90;99.90
10812;DHT22;5458;51.496;7.334;2022-10-18T03:31:17;16.90;99.90
10812;DHT22;5458;51.496;7.334;2022-10-18T03:33:42;16.90;99.90
10812;DHT22;5458;51.496;7.334;2022-10-18T03:36:08;16.90;99.90
10812;DHT22;5458;51.496;7.334;2022-10-18T03:38:33;16.90;99.90
10812;DHT22;5458;51.496;7.334;2022-10-18T03:40:59;16.90;99.90
10812;DHT22;5458;51.496;7.334;2022-10-18T03:43:25;16.90;99.90
10812;DHT22;5458;51.496;7.334;2022-10-18T03:45:50;16.90;99.90
10812;DHT22;5458;51.496;7.334;2022-10-18T03:48:16;16.90;99.90
10812;DHT22;5458;51.496;7.334;2022-10-18T03:50:42;16.90;99.90
10812;DHT22;5458;51.496;7.334;2022-10-18T03:53:08;16.90;99.90
10812;DHT22;5458;51.496;7.334;2022-10-18T03:55:33;17.00;99.90
10812;DHT22;5458;51.496;7.334;2022-10-18T03:57:59;16.90;99.90
10812;DHT22;5458;51.496;7.334;2022-10-18T04:00:25;16.90;99.90
10812;DHT22;5458;51.496;7.334;2022-10-18T04:02:50;16.90;99.90
10812;DHT22;5458;51.496;7.334;2022-10-18T04:05:16;17.00;99.90
10812;DHT22;5458;51.496;7.334;2022-10-18T04:07:41;17.00;99.90
10812;DHT22;5458;51.496;7.334;2022-10-18T04:10:07;16.90;99.90
10812;DHT22;5458;51.496;7.334;2022-10-18T04:12:33;17.00;99.90
10812;DHT22;5458;51.496;7.334;2022-10-18T04:14:58;16.90;99.90
10812;DHT22;5458;51.496;7.334;2022-10-18T04:17:24;16.90;99.90
10812;DHT22;5458;51.496;7.334;2022-10-18T04:19:49;16.90;99.90
10812;DHT22;5458;51.496;7.334;2022-10-18T04:22:15;16.90;99.90
10812;DHT22;5458;51.496;7.334;2022-10-18T04:24:41;16.80;99.90
10812;DHT22;5458;51.496;7.334;2022-10-18T04:27:07;16.90;99.90
10812;DHT22;5458;51.496;7.334;2022-10-18T04:29:33;16.90;99.90
10812;DHT22;5458;51.496;7.334;2022-10-18T04:31:58;16.90;99.90
10812;DHT22;5458;51.496;7.334;2022-10-18T04:34:25;16.90;99.90
10812;DHT22;5458;51.496;7.334;2022-10-18T04:36:51;16.90;99.90
10812;DHT22;5458;51.496;7.334;2022-10-18T04:39:16;16.90;99.90
10812;DHT22;5458;51.496;7.334;2022-10-18T04:41:42;16.90;99.90
10812;DHT22;5458;51.496;7.334;2022-10-18T04:44:07;16.90;99.90
10812;DHT22;5458;51.496;7.334;2022-10-18T04:46:33;16.90;99.90
10812;DHT22;5458;51.496;7.334;2022-10-18T04:48:59;16.90;99.90
10812;DHT22;5458;51.496;7.334;2022-10-18T04:51:28;16.90;99.90
10812;DHT22;5458;51.496;7.334;2022-10-18T04:53:54;16.90;99.90
10812;DHT22;5458;51.496;7.334;2022-10-18T04:56:19;16.90;99.90
10812;DHT22;5458;51.496;7.334;2022-10-18T04:58:45;16.80;99.90
10812;DHT22;5458;51.496;7.334;2022-10-18T05:01:11;16.90;99.90
10812;DHT22;5458;51.496;7.334;2022-10-18T05:03:37;16.80;99.90
10812;DHT22;5458;51.496;7.334;2022-10-18T05:06:03;16.90;99.90
10812;DHT22;5458;51.496;7.334;2022-10-18T05:08:31;16.90;99.90
10812;DHT22;5458;51.496;7.334;2022-10-18T05:10:57;16.90;99.90
10812;DHT22;5458;51.496;7.334;2022-10-18T05:13:23;16.90;99.90
10812;DHT22;5458;51.496;7.334;2022-10-18T05:15:49;16.90;99.90
10812;DHT22;5458;51.496;7.334;2022-10-18T05:18:15;16.90;99.90
10812;DHT22;5458;51.496;7.334;2022-10-18T05:20:40;16.80;99.90
10812;DHT22;5458;51.496;7.334;2022-10-18T05:23:06;16.90;99.90
10812;DHT22;5458;51.496;7.334;2022-10-18T05:25:40;16.80;99.90
10812;DHT22;5458;51.496;7.334;2022-10-18T05:28:06;16.80;99.90
10812;DHT22;5458;51.496;7.334;2022-10-18T05:30:32;16.90;99.90
10812;DHT22;5458;51.496;7.334;2022-10-18T05:32:58;16.90;99.90
10812;DHT22;5458;51.496;7.334;2022-10-18T05:35:23;16.80;99.90
10812;DHT22;5458;51.496;7.334;2022-10-18T05:37:49;16.80;99.90
10812;DHT22;5458;51.496;7.334;2022-10-18T05:40:15;16.80;99.90
10812;DHT22;5458;51.496;7.334;2022-10-18T05:42:40;16.90;99.90
10812;DHT22;5458;51.496;7.334;2022-10-18T05:45:06;16.80;99.90
10812;DHT22;5458;51.496;7.334;2022-10-18T05:47:32;16.80;99.90
10812;DHT22;5458;51.496;7.334;2022-10-18T05:49:57;16.90;99.90
10812;DHT22;5458;51.496;7.334;2022-10-18T05:52:23;16.90;99.90
10812;DHT22;5458;51.496;7.334;2022-10-18T05:54:48;16.80;99.90
10812;DHT22;5458;51.496;7.334;2022-10-18T05:57:14;16.90;99.90
10812;DHT22;5458;51.496;7.334;2022-10-18T05:59:40;16.90;99.90
10812;DHT22;5458;51.496;7.334;2022-10-18T06:02:05;16.80;99.90
10812;DHT22;5458;51.496;7.334;2022-10-18T06:04:31;16.80;99.90
10812;DHT22;5458;51.496;7.334;2022-10-18T06:06:56;16.80;99.90
10812;DHT22;5458;51.496;7.334;2022-10-18T06:09:22;16.80;99.90
10812;DHT22;5458;51.496;7.334;2022-10-18T06:11:48;16.90;99.90
10812;DHT22;5458;51.496;7.334;2022-10-18T06:14:13;16.90;99.90
10812;DHT22;5458;51.496;7.334;2022-10-18T06:16:39;16.90;99.90
10812;DHT22;5458;51.496;7.334;2022-10-18T06:19:04;16.90;99.90
10812;DHT22;5458;51.496;7.334;2022-10-18T06:21:30;16.90;99.90
10812;DHT22;5458;51.496;7.334;2022-10-18T06:23:57;16.90;99.90
10812;DHT22;5458;51.496;7.334;2022-10-18T06:26:23;16.90;99.90
10812;DHT22;5458;51.496;7.334;2022-10-18T06:28:49;16.90;99.90
10812;DHT22;5458;51.496;7.334;2022-10-18T06:31:15;16.90;99.90
10812;DHT22;5458;51.496;7.334;2022-10-18T06:33:41;16.90;99.90
10812;DHT22;5458;51.496;7.334;2022-10-18T06:36:12;16.90;99.90
10812;DHT22;5458;51.496;7.334;2022-10-18T06:38:38;16.90;99.90
10812;DHT22;5458;51.496;7.334;2022-10-18T06:41:05;16.90;99.90
10812;DHT22;5458;51.496;7.334;2022-10-18T06:43:31;16.90;99.90
10812;DHT22;5458;51.496;7.334;2022-10-18T06:45:56;16.90;99.90
10812;DHT22;5458;51.496;7.334;2022-10-18T06:48:22;16.90;99.90
10812;DHT22;5458;51.496;7.334;2022-10-18T06:50:53;16.90;99.90
10812;DHT22;5458;51.496;7.334;2022-10-18T06:53:19;16.90;99.90
10812;DHT22;5458;51.496;7.334;2022-10-18T06:55:44;16.90;99.90
10812;DHT22;5458;51.496;7.334;2022-10-18T06:58:11;16.90;99.90
10812;DHT22;5458;51.496;7.334;2022-10-18T07:00:36;16.90;99.90
10812;DHT22;5458;51.496;7.334;2022-10-18T07:03:02;16.90;99.90
10812;DHT22;5458;51.496;7.334;2022-10-18T07:05:27;16.90;99.90
10812;DHT22;5458;51.496;7.334;2022-10-18T07:07:53;16.90;99.90
10812;DHT22;5458;51.496;7.334;2022-10-18T07:10:19;16.90;99.90
10812;DHT22;5458;51.496;7.334;2022-10-18T07:12:44;16.90;99.90
10812;DHT22;5458;51.496;7.334;2022-10-18T07:15:10;16.90;99.90
10812;DHT22;5458;51.496;7.334;2022-10-18T07:17:35;17.00;99.90
10812;DHT22;5458;51.496;7.334;2022-10-18T07:20:01;17.00;99.90
10812;DHT22;5458;51.496;7.334;2022-10-18T07:22:28;17.00;99.90
10812;DHT22;5458;51.496;7.334;2022-10-18T07:24:54;17.00;99.90
10812;DHT22;5458;51.496;7.334;2022-10-18T07:27:20;17.00;99.90
10812;DHT22;5458;51.496;7.334;2022-10-18T07:29:45;17.00;99.90
10812;DHT22;5458;51.496;7.334;2022-10-18T07:32:12;17.10;99.90
10812;DHT22;5458;51.496;7.334;2022-10-18T07:34:38;17.10;99.90
10812;DHT22;5458;51.496;7.334;2022-10-18T07:37:04;17.10;99.90
10812;DHT22;5458;51.496;7.334;2022-10-18T07:39:29;17.10;99.90
10812;DHT22;5458;51.496;7.334;2022-10-18T07:41:55;17.10;99.90
10812;DHT22;5458;51.496;7.334;2022-10-18T07:44:20;17.10;99.90
10812;DHT22;5458;51.496;7.334;2022-10-18T07:46:46;17.10;99.90
10812;DHT22;5458;51.496;7.334;2022-10-18T07:49:11;17.10;99.90
10812;DHT22;5458;51.496;7.334;2022-10-18T07:51:37;17.10;99.90
10812;DHT22;5458;51.496;7.334;2022-10-18T07:54:03;17.10;99.90
10812;DHT22;5458;51.496;7.334;2022-10-18T07:56:28;17.20;99.90
10812;DHT22;5458;51.496;7.334;2022-10-18T07:58:55;17.20;99.90
10812;DHT22;5458;51.496;7.334;2022-10-18T08:01:22;17.20;99.90
10812;DHT22;5458;51.496;7.334;2022-10-18T08:03:49;17.30;99.90
10812;DHT22;5458;51.496;7.334;2022-10-18T08:06:16;17.40;99.90
10812;DHT22;5458;51.496;7.334;2022-10-18T08:08:43;17.50;99.90
10812;DHT22;5458;51.496;7.334;2022-10-18T08:11:17;17.50;99.90
10812;DHT22;5458;51.496;7.334;2022-10-18T08:13:43;17.60;99.90
10812;DHT22;5458;51.496;7.334;2022-10-18T08:16:11;17.60;99.90
10812;DHT22;5458;51.496;7.334;2022-10-18T08:18:38;17.70;99.90
10812;DHT22;5458;51.496;7.334;2022-10-18T08:21:05;17.70;99.90
10812;DHT22;5458;51.496;7.334;2022-10-18T08:23:32;17.60;99.90
10812;DHT22;5458;51.496;7.334;2022-10-18T08:26:04;17.60;99.90
10812;DHT22;5458;51.496;7.334;2022-10-18T08:28:29;17.60;99.90
10812;DHT22;5458;51.496;7.334;2022-10-18T08:30:55;17.50;99.90
10812;DHT22;5458;51.496;7.334;2022-10-18T08:33:21;17.50;99.90
10812;DHT22;5458;51.496;7.334;2022-10-18T08:35:57;17.60;99.90
10812;DHT22;5458;51.496;7.334;2022-10-18T08:38:23;17.60;99.90
10812;DHT22;5458;51.496;7.334;2022-10-18T08:40:49;17.60;99.90
10812;DHT22;5458;51.496;7.334;2022-10-18T08:43:39;17.50;99.90
10812;DHT22;5458;51.496;7.334;2022-10-18T08:46:10;17.50;99.90
10812;DHT22;5458;51.496;7.334;2022-10-18T08:48:43;17.50;99.90
10812;DHT22;5458;51.496;7.334;2022-10-18T08:51:42;17.40;99.90
10812;DHT22;5458;51.496;7.334;2022-10-18T08:54:21;17.40;99.90
10812;DHT22;5458;51.496;7.334;2022-10-18T08:56:58;17.40;99.90
10812;DHT22;5458;51.496;7.334;2022-10-18T08:59:24;17.30;99.90
10812;DHT22;5458;51.496;7.334;2022-10-18T09:02:00;17.30;99.90
10812;DHT22;5458;51.496;7.334;2022-10-18T09:04:50;17.30;99.90
10812;DHT22;5458;51.496;7.334;2022-10-18T09:10:43;17.40;99.90
10812;DHT22;5458;51.496;7.334;2022-10-18T09:21:10;17.50;99.90
10812;DHT22;5458;51.496;7.334;2022-10-18T09:23:46;17.50;99.90
10812;DHT22;5458;51.496;7.334;2022-10-18T09:26:21;17.50;99.90
10812;DHT22;5458;51.496;7.334;2022-10-18T09:37:15;17.50;99.90
10812;DHT22;5458;51.496;7.334;2022-10-18T09:39:41;17.60;99.90
10812;DHT22;5458;51.496;7.334;2022-10-18T09:42:16;17.50;99.90
10812;DHT22;5458;51.496;7.334;2022-10-18T09:44:50;17.50;99.90
10812;DHT22;5458;51.496;7.334;2022-10-18T09:47:33;17.60;99.90
10812;DHT22;5458;51.496;7.334;2022-10-18T09:50:25;17.60;99.90
10812;DHT22;5458;51.496;7.334;2022-10-18T09:55:43;17.60;99.90
10812;DHT22;5458;51.496;7.334;2022-10-18T09:58:12;17.60;99.90
10812;DHT22;5458;51.496;7.334;2022-10-18T10:00:45;17.60;99.90
10812;DHT22;5458;51.496;7.334;2022-10-18T10:03:12;17.70;99.90
10812;DHT22;5458;51.496;7.334;2022-10-18T10:05:39;17.70;99.90
10812;DHT22;5458;51.496;7.334;2022-10-18T10:08:05;17.70;99.90
10812;DHT22;5458;51.496;7.334;2022-10-18T10:10:31;17.70;99.90
10812;DHT22;5458;51.496;7.334;2022-10-18T10:13:05;17.70;99.90
10812;DHT22;5458;51.496;7.334;2022-10-18T10:15:31;17.70;99.90
10812;DHT22;5458;51.496;7.334;2022-10-18T10:18:01;17.80;99.90
10812;DHT22;5458;51.496;7.334;2022-10-18T10:20:46;17.80;99.90
10812;DHT22;5458;51.496;7.334;2022-10-18T10:23:21;17.90;99.90
10812;DHT22;5458;51.496;7.334;2022-10-18T10:25:58;18.00;99.90
10812;DHT22;5458;51.496;7.334;2022-10-18T10:28:28;18.00;99.90
10812;DHT22;5458;51.496;7.334;2022-10-18T10:31:20;18.10;99.90
10812;DHT22;5458;51.496;7.334;2022-10-18T10:36:49;18.20;99.90
10812;DHT22;5458;51.496;7.334;2022-10-18T10:39:17;18.30;99.90
10812;DHT22;5458;51.496;7.334;2022-10-18T10:41:51;18.30;99.90
10812;DHT22;5458;51.496;7.334;2022-10-18T10:44:19;18.30;99.90
10812;DHT22;5458;51.496;7.334;2022-10-18T10:46:47;18.40;99.90
10812;DHT22;5458;51.496;7.334;2022-10-18T10:49:26;18.50;99.90
10812;DHT22;5458;51.496;7.334;2022-10-18T10:52:01;18.60;99.90
10812;DHT22;5458;51.496;7.334;2022-10-18T10:54:29;18.70;99.90
10812;DHT22;5458;51.496;7.334;2022-10-18T10:57:04;18.80;99.90
10812;DHT22;5458;51.496;7.334;2022-10-18T11:04:44;19.30;99.90
10812;DHT22;5458;51.496;7.334;2022-10-18T11:10:33;19.60;99.90
10812;DHT22;5458;51.496;7.334;2022-10-18T11:15:06;19.50;99.90
10812;DHT22;5458;51.496;7.334;2022-10-18T11:20:37;19.90;99.90
10812;DHT22;5458;51.496;7.334;2022-10-18T11:23:10;20.10;99.90
10812;DHT22;5458;51.496;7.334;2022-10-18T11:25:47;20.30;99.90
10812;DHT22;5458;51.496;7.334;2022-10-18T11:41:55;20.10;99.90
10812;DHT22;5458;51.496;7.334;2022-10-18T11:44:38;20.10;99.90
10812;DHT22;5458;51.496;7.334;2022-10-18T11:47:14;20.20;99.90
10812;DHT22;5458;51.496;7.334;2022-10-18T11:57:56;20.40;99.90
10812;DHT22;5458;51.496;7.334;2022-10-18T12:06:06;20.60;99.90
10812;DHT22;5458;51.496;7.334;2022-10-18T12:08:43;20.60;99.90
10812;DHT22;5458;51.496;7.334;2022-10-18T12:11:16;20.50;99.90
10812;DHT22;5458;51.496;7.334;2022-10-18T12:13:50;20.40;99.90
10812;DHT22;5458;51.496;7.334;2022-10-18T12:16:19;20.30;99.90
10812;DHT22;5458;51.496;7.334;2022-10-18T12:18:54;20.30;99.90
10812;DHT22;5458;51.496;7.334;2022-10-18T12:21:22;20.30;99.90
10812;DHT22;5458;51.496;7.334;2022-10-18T12:24:07;20.20;99.90
10812;DHT22;5458;51.496;7.334;2022-10-18T12:26:35;20.10;99.90
10812;DHT22;5458;51.496;7.334;2022-10-18T12:29:22;20.00;99.90
10812;DHT22;5458;51.496;7.334;2022-10-18T12:32:19;20.00;99.90
10812;DHT22;5458;51.496;7.334;2022-10-18T12:34:55;20.00;99.90
10812;DHT22;5458;51.496;7.334;2022-10-18T12:37:49;20.00;99.90
10812;DHT22;5458;51.496;7.334;2022-10-18T12:40:22;20.00;99.90
10812;DHT22;5458;51.496;7.334;2022-10-18T12:42:50;19.90;99.90
10812;DHT22;5458;51.496;7.334;2022-10-18T12:45:33;19.90;99.90
10812;DHT22;5458;51.496;7.334;2022-10-18T12:48:01;19.90;99.90
10812;DHT22;5458;51.496;7.334;2022-10-18T12:50:40;19.90;99.90
10812;DHT22;5458;51.496;7.334;2022-10-18T12:53:22;20.00;99.90
10812;DHT22;5458;51.496;7.334;2022-10-18T12:55:49;20.00;99.90
10812;DHT22;5458;51.496;7.334;2022-10-18T12:58:30;20.10;99.90
10812;DHT22;5458;51.496;7.334;2022-10-18T13:00:58;20.10;99.90
10812;DHT22;5458;51.496;7.334;2022-10-18T13:34:48;20.10;99.90
10812;DHT22;5458;51.496;7.334;2022-10-18T13:39:40;20.10;99.90
10812;DHT22;5458;51.496;7.334;2022-10-18T13:44:41;19.90;99.90
10812;DHT22;5458;51.496;7.334;2022-10-18T13:47:14;19.80;99.90
10812;DHT22;5458;51.496;7.334;2022-10-18T13:58:01;19.70;99.90
10812;DHT22;5458;51.496;7.334;2022-10-18T14:04:04;19.70;99.90
10812;DHT22;5458;51.496;7.334;2022-10-18T14:06:40;19.70;99.90
10812;DHT22;5458;51.496;7.334;2022-10-18T14:09:43;19.60;99.90
10812;DHT22;5458;51.496;7.334;2022-10-18T14:12:16;19.60;99.90
10812;DHT22;5458;51.496;7.334;2022-10-18T14:15:04;19.60;99.90
10812;DHT22;5458;51.496;7.334;2022-10-18T14:17:37;19.60;98.80
10812;DHT22;5458;51.496;7.334;2022-10-18T14:20:16;19.60;98.70
10812;DHT22;5458;51.496;7.334;2022-10-18T14:28:18;19.60;99.20
10812;DHT22;5458;51.496;7.334;2022-10-18T14:31:02;19.60;99.40
10812;DHT22;5458;51.496;7.334;2022-10-18T14:36:07;19.50;99.60
10812;DHT22;5458;51.496;7.334;2022-10-18T14:38:35;19.50;99.70
10812;DHT22;5458;51.496;7.334;2022-10-18T14:43:50;19.40;99.90
10812;DHT22;5458;51.496;7.334;2022-10-18T14:49:01;19.30;99.90
10812;DHT22;5458;51.496;7.334;2022-10-18T14:51:33;19.30;99.90
10812;DHT22;5458;51.496;7.334;2022-10-18T14:53:59;19.30;99.90
10812;DHT22;5458;51.496;7.334;2022-10-18T14:56:29;19.30;99.90
10812;DHT22;5458;51.496;7.334;2022-10-18T14:58:56;19.20;99.90
10812;DHT22;5458;51.496;7.334;2022-10-18T15:01:28;19.20;99.90
10812;DHT22;5458;51.496;7.334;2022-10-18T15:03:58;19.20;99.90
10812;DHT22;5458;51.496;7.334;2022-10-18T15:06:24;19.20;99.90
10812;DHT22;5458;51.496;7.334;2022-10-18T15:08:56;19.10;99.90
10812;DHT22;5458;51.496;7.334;2022-10-18T15:11:22;19.10;99.90
10812;DHT22;5458;51.496;7.334;2022-10-18T15:13:53;19.10;99.90
10812;DHT22;5458;51.496;7.334;2022-10-18T15:16:22;19.00;99.90
10812;DHT22;5458;51.496;7.334;2022-10-18T15:19:00;19.00;99.90
10812;DHT22;5458;51.496;7.334;2022-10-18T15:21:26;18.90;99.90
10812;DHT22;5458;51.496;7.334;2022-10-18T15:23:52;18.90;99.90
10812;DHT22;5458;51.496;7.334;2022-10-18T15:26:27;18.80;99.90
10812;DHT22;5458;51.496;7.334;2022-10-18T15:28:55;18.80;99.90
10812;DHT22;5458;51.496;7.334;2022-10-18T15:31:32;18.80;99.90
10812;DHT22;5458;51.496;7.334;2022-10-18T15:36:39;18.70;99.90
10812;DHT22;5458;51.496;7.334;2022-10-18T15:39:21;18.60;99.90
10812;DHT22;5458;51.496;7.334;2022-10-18T15:41:59;18.60;99.90
10812;DHT22;5458;51.496;7.334;2022-10-18T15:44:33;18.60;99.90
10812;DHT22;5458;51.496;7.334;2022-10-18T15:47:15;18.50;99.90
10812;DHT22;5458;51.496;7.334;2022-10-18T15:52:41;18.40;99.90
10812;DHT22;5458;51.496;7.334;2022-10-18T15:58:25;18.30;99.90
10812;DHT22;5458;51.496;7.334;2022-10-18T16:00:55;18.30;99.90
10812;DHT22;5458;51.496;7.334;2022-10-18T16:03:21;18.20;99.90
10812;DHT22;5458;51.496;7.334;2022-10-18T16:05:52;18.10;99.90
10812;DHT22;5458;51.496;7.334;2022-10-18T16:08:25;18.10;99.90
10812;DHT22;5458;51.496;7.334;2022-10-18T16:10:52;18.00;99.90
10812;DHT22;5458;51.496;7.334;2022-10-18T16:13:18;17.90;99.90
10812;DHT22;5458;51.496;7.334;2022-10-18T16:15:44;17.80;99.90
10812;DHT22;5458;51.496;7.334;2022-10-18T16:18:15;17.80;99.90
10812;DHT22;5458;51.496;7.334;2022-10-18T16:20:41;17.70;99.90
10812;DHT22;5458;51.496;7.334;2022-10-18T16:23:26;17.70;99.90
10812;DHT22;5458;51.496;7.334;2022-10-18T16:25:53;17.60;99.90
10812;DHT22;5458;51.496;7.334;2022-10-18T16:28:21;17.50;99.90
10812;DHT22;5458;51.496;7.334;2022-10-18T16:30:59;17.40;99.90
10812;DHT22;5458;51.496;7.334;2022-10-18T16:33:25;17.30;99.90
10812;DHT22;5458;51.496;7.334;2022-10-18T16:35:52;17.20;99.90
10812;DHT22;5458;51.496;7.334;2022-10-18T16:38:30;17.10;99.90
10812;DHT22;5458;51.496;7.334;2022-10-18T16:40:56;17.00;99.90
10812;DHT22;5458;51.496;7.334;2022-10-18T16:43:22;17.00;99.90
10812;DHT22;5458;51.496;7.334;2022-10-18T16:45:49;16.80;99.90
10812;DHT22;5458;51.496;7.334;2022-10-18T16:48:17;16.80;99.90
10812;DHT22;5458;51.496;7.334;2022-10-18T16:50:43;16.70;99.90
10812;DHT22;5458;51.496;7.334;2022-10-18T16:53:09;16.60;99.90
10812;DHT22;5458;51.496;7.334;2022-10-18T16:55:37;16.60;99.90
10812;DHT22;5458;51.496;7.334;2022-10-18T16:58:03;16.50;99.90
10812;DHT22;5458;51.496;7.334;2022-10-18T17:00:29;16.40;99.90
10812;DHT22;5458;51.496;7.334;2022-10-18T17:02:55;16.40;99.90
10812;DHT22;5458;51.496;7.334;2022-10-18T17:05:20;16.30;99.90
10812;DHT22;5458;51.496;7.334;2022-10-18T17:07:47;16.30;99.90
10812;DHT22;5458;51.496;7.334;2022-10-18T17:10:14;16.30;99.90
10812;DHT22;5458;51.496;7.334;2022-10-18T17:12:41;16.20;99.90
10812;DHT22;5458;51.496;7.334;2022-10-18T17:15:08;16.10;99.90
10812;DHT22;5458;51.496;7.334;2022-10-18T17:17:34;16.10;99.90
10812;DHT22;5458;51.496;7.334;2022-10-18T17:20:00;16.10;99.90
10812;DHT22;5458;51.496;7.334;2022-10-18T17:22:26;16.00;99.90
10812;DHT22;5458;51.496;7.334;2022-10-18T17:24:52;16.00;99.90
10812;DHT22;5458;51.496;7.334;2022-10-18T17:27:17;16.00;99.90
10812;DHT22;5458;51.496;7.334;2022-10-18T17:29:43;15.90;99.90
10812;DHT22;5458;51.496;7.334;2022-10-18T17:32:08;15.80;99.90
10812;DHT22;5458;51.496;7.334;2022-10-18T17:34:34;15.80;99.90
10812;DHT22;5458;51.496;7.334;2022-10-18T17:37:04;15.70;99.90
10812;DHT22;5458;51.496;7.334;2022-10-18T17:39:29;15.70;99.90
10812;DHT22;5458;51.496;7.334;2022-10-18T17:41:55;15.60;99.90
10812;DHT22;5458;51.496;7.334;2022-10-18T17:44:22;15.60;99.90
10812;DHT22;5458;51.496;7.334;2022-10-18T17:46:48;15.50;99.90
10812;DHT22;5458;51.496;7.334;2022-10-18T17:49:13;15.60;99.90
10812;DHT22;5458;51.496;7.334;2022-10-18T17:51:40;15.50;99.90
10812;DHT22;5458;51.496;7.334;2022-10-18T17:54:07;15.40;99.90
10812;DHT22;5458;51.496;7.334;2022-10-18T17:56:33;15.40;99.90
10812;DHT22;5458;51.496;7.334;2022-10-18T17:58:59;15.40;99.90
10812;DHT22;5458;51.496;7.334;2022-10-18T18:01:24;15.30;99.90
10812;DHT22;5458;51.496;7.334;2022-10-18T18:03:55;15.30;99.90
10812;DHT22;5458;51.496;7.334;2022-10-18T18:06:24;15.20;99.90
10812;DHT22;5458;51.496;7.334;2022-10-18T18:08:56;15.20;99.90
10812;DHT22;5458;51.496;7.334;2022-10-18T18:11:23;15.20;99.90
10812;DHT22;5458;51.496;7.334;2022-10-18T18:13:48;15.20;99.90
10812;DHT22;5458;51.496;7.334;2022-10-18T18:16:17;15.10;99.90
10812;DHT22;5458;51.496;7.334;2022-10-18T18:18:44;15.10;99.90
10812;DHT22;5458;51.496;7.334;2022-10-18T18:21:10;15.00;99.90
10812;DHT22;5458;51.496;7.334;2022-10-18T18:23:35;15.00;99.90
10812;DHT22;5458;51.496;7.334;2022-10-18T18:26:01;14.90;99.90
10812;DHT22;5458;51.496;7.334;2022-10-18T18:28:26;14.90;99.90
10812;DHT22;5458;51.496;7.334;2022-10-18T18:30:52;14.80;99.90
10812;DHT22;5458;51.496;7.334;2022-10-18T18:33:18;14.80;99.90
10812;DHT22;5458;51.496;7.334;2022-10-18T18:35:52;14.70;99.90
10812;DHT22;5458;51.496;7.334;2022-10-18T18:38:17;14.70;99.90
10812;DHT22;5458;51.496;7.334;2022-10-18T18:40:43;14.70;99.90